createdAt,value
2023-02-07T00:01:21.612Z,23.65
2023-02-07T00:03:48.539Z,24.35
2023-02-07T00:06:20.652Z,23.92
2023-02-07T00:08:47.720Z,23.80
2023-02-07T00:11:16.968Z,25.38
2023-02-07T00:13:44.686Z,24.27
2023-02-07T00:16:11.681Z,23.90
2023-02-07T00:18:40.278Z,25.35
2023-02-07T00:21:08.867Z,27.08
2023-02-07T00:23:35.890Z,25.77
2023-02-07T00:26:03.336Z,25.83
2023-02-07T00:28:30.391Z,24.45
2023-02-07T00:31:07.535Z,25.55
2023-02-07T00:33:38.510Z,26.13
2023-02-07T00:36:08.450Z,25.70
2023-02-07T00:38:35.337Z,25.23
2023-02-07T00:41:02.458Z,25.60
2023-02-07T00:43:30.334Z,26.52
2023-02-07T00:46:01.696Z,24.95
2023-02-07T00:48:29.471Z,24.75
2023-02-07T00:50:56.404Z,24.65
2023-02-07T00:53:23.321Z,26.08
2023-02-07T00:55:50.387Z,26.25
2023-02-07T00:58:17.246Z,24.52
2023-02-07T01:00:45.358Z,25.65
2023-02-07T01:03:12.228Z,25.42
2023-02-07T01:05:39.486Z,25.38
2023-02-07T01:08:06.714Z,24.85
2023-02-07T01:10:35.437Z,25.67
2023-02-07T01:13:02.278Z,24.48
2023-02-07T01:15:29.275Z,24.45
2023-02-07T01:17:56.215Z,25.50
2023-02-07T01:20:23.093Z,24.83
2023-02-07T01:22:50.067Z,26.20
2023-02-07T01:25:17.040Z,24.73
2023-02-07T01:27:43.899Z,24.90
2023-02-07T01:30:11.502Z,24.85
2023-02-07T01:32:38.379Z,26.15
2023-02-07T01:35:05.415Z,24.58
2023-02-07T01:37:32.665Z,24.85
2023-02-07T01:39:59.536Z,24.65
2023-02-07T01:42:28.055Z,25.35
2023-02-07T01:44:54.798Z,25.25
2023-02-07T01:47:22.446Z,25.10
2023-02-07T01:49:50.325Z,25.75
2023-02-07T01:52:19.910Z,24.58
2023-02-07T01:54:48.988Z,25.63
2023-02-07T01:57:16.184Z,24.85
2023-02-07T01:59:44.218Z,24.23
2023-02-07T02:02:15.516Z,24.30
2023-02-07T02:04:42.607Z,25.27
2023-02-07T02:07:10.446Z,24.40
2023-02-07T02:09:37.938Z,24.77
2023-02-07T02:12:47.860Z,25.02
2023-02-07T02:15:33.045Z,25.95
2023-02-07T02:18:02.843Z,25.73
2023-02-07T02:20:49.813Z,25.02
2023-02-07T02:23:58.458Z,25.33
2023-02-07T02:26:34.170Z,24.27
2023-02-07T02:29:19.520Z,25.05
2023-02-07T02:34:38.042Z,24.35
2023-02-07T02:37:15.519Z,23.48
2023-02-07T02:40:04.534Z,25.75
2023-02-07T02:42:35.502Z,23.67
2023-02-07T02:45:12.501Z,25.33
2023-02-07T02:47:40.020Z,24.80
2023-02-07T02:50:17.774Z,25.60
2023-02-07T02:52:50.633Z,24.38
2023-02-07T02:55:54.025Z,24.58
2023-02-07T02:58:40.448Z,24.50
2023-02-07T03:01:07.316Z,24.15
2023-02-07T03:03:46.736Z,25.33
2023-02-07T03:06:46.633Z,21.70
2023-02-07T03:09:43.286Z,20.00
2023-02-07T03:12:30.327Z,21.10
2023-02-07T03:15:00.895Z,20.27
2023-02-07T03:17:53.887Z,20.17
2023-02-07T03:20:27.450Z,19.52
2023-02-07T03:22:54.369Z,19.33
2023-02-07T03:25:21.291Z,18.83
2023-02-07T03:27:48.268Z,19.27
2023-02-07T03:30:16.901Z,19.45
2023-02-07T03:32:45.512Z,18.65
2023-02-07T03:35:12.445Z,18.73
2023-02-07T03:37:51.554Z,18.98
2023-02-07T03:40:18.550Z,18.40
2023-02-07T03:42:54.122Z,17.92
2023-02-07T03:45:21.237Z,16.77
2023-02-07T03:47:48.156Z,19.27
2023-02-07T03:50:16.047Z,18.00
2023-02-07T03:52:42.955Z,18.70
2023-02-07T03:55:10.045Z,17.30
2023-02-07T03:57:37.020Z,17.17
2023-02-07T04:00:05.780Z,16.88
2023-02-07T04:02:40.094Z,18.80
2023-02-07T04:05:07.218Z,17.85
2023-02-07T04:07:34.125Z,18.08
2023-02-07T04:10:00.971Z,17.73
2023-02-07T04:12:32.875Z,16.38
2023-02-07T04:15:02.993Z,17.75
2023-02-07T04:17:31.516Z,19.08
2023-02-07T04:19:58.781Z,17.27
2023-02-07T04:22:25.650Z,17.23
2023-02-07T04:24:52.486Z,17.10
2023-02-07T04:27:19.373Z,15.93
2023-02-07T04:29:46.225Z,17.95
2023-02-07T04:32:13.854Z,17.88
2023-02-07T04:34:40.831Z,17.65
2023-02-07T04:37:07.689Z,17.42
2023-02-07T04:39:34.739Z,16.88
2023-02-07T04:42:01.845Z,20.42
2023-02-07T04:44:28.833Z,18.45
2023-02-07T04:46:55.679Z,20.48
2023-02-07T04:49:22.830Z,19.05
2023-02-07T04:51:49.927Z,18.73
2023-02-07T04:54:16.807Z,18.65
2023-02-07T04:56:43.943Z,18.48
2023-02-07T04:59:11.020Z,19.42
2023-02-07T05:01:37.916Z,17.25
2023-02-07T05:04:06.081Z,17.45
2023-02-07T05:06:33.183Z,17.08
2023-02-07T05:09:00.116Z,16.35
2023-02-07T05:11:27.147Z,17.10
2023-02-07T05:13:54.173Z,15.02
2023-02-07T05:16:21.079Z,15.82
2023-02-07T05:18:48.241Z,15.85
2023-02-07T05:21:15.319Z,14.43
2023-02-07T05:23:42.378Z,15.10
2023-02-07T05:26:09.486Z,15.07
2023-02-07T05:28:36.554Z,15.20
2023-02-07T05:31:03.840Z,13.57
2023-02-07T05:33:30.986Z,14.15
2023-02-07T05:36:00.551Z,14.07
2023-02-07T05:38:27.543Z,13.65
2023-02-07T05:40:54.739Z,14.52
2023-02-07T05:43:21.876Z,13.50
2023-02-07T05:45:49.292Z,13.65
2023-02-07T05:48:16.401Z,13.70
2023-02-07T05:50:43.380Z,12.48
2023-02-07T05:53:10.798Z,11.68
2023-02-07T05:55:38.280Z,12.60
2023-02-07T05:58:05.518Z,12.10
2023-02-07T06:00:32.525Z,12.65
2023-02-07T06:02:59.744Z,12.35
2023-02-07T06:05:31.690Z,12.07
2023-02-07T06:07:59.085Z,11.07
2023-02-07T06:10:26.280Z,12.23
2023-02-07T06:12:53.314Z,11.07
2023-02-07T06:15:20.325Z,10.15
2023-02-07T06:17:47.610Z,11.75
2023-02-07T06:20:14.787Z,11.10
2023-02-07T06:22:41.963Z,10.57
2023-02-07T06:25:11.972Z,11.63
2023-02-07T06:27:41.923Z,10.95
2023-02-07T06:30:10.187Z,18.10
2023-02-07T06:32:37.389Z,14.20
2023-02-07T06:35:05.524Z,14.02
2023-02-07T06:37:32.634Z,13.35
2023-02-07T06:39:59.594Z,13.57
2023-02-07T06:42:26.609Z,12.38
2023-02-07T06:44:53.806Z,12.23
2023-02-07T06:47:20.976Z,12.13
2023-02-07T06:49:48.058Z,12.68
2023-02-07T06:52:15.203Z,12.27
2023-02-07T06:54:42.401Z,11.80
2023-02-07T06:57:09.571Z,12.18
2023-02-07T06:59:36.664Z,11.60
2023-02-07T07:02:04.081Z,11.05
2023-02-07T07:04:31.531Z,11.52
2023-02-07T07:06:58.671Z,11.48
2023-02-07T07:09:26.733Z,17.65
2023-02-07T07:11:54.021Z,26.27
2023-02-07T07:14:21.236Z,24.27
2023-02-07T07:16:48.487Z,22.48
2023-02-07T07:19:15.744Z,21.13
2023-02-07T07:21:42.699Z,19.88
2023-02-07T07:24:09.673Z,18.75
2023-02-07T07:26:48.399Z,19.08
2023-02-07T07:29:17.717Z,17.02
2023-02-07T07:31:45.078Z,17.35
2023-02-07T07:34:12.289Z,17.38
2023-02-07T07:36:39.359Z,16.23
2023-02-07T07:39:08.428Z,15.77
2023-02-07T07:41:35.346Z,14.88
2023-02-07T07:44:02.367Z,16.15
2023-02-07T07:46:29.519Z,14.63
2023-02-07T07:48:56.477Z,15.10
2023-02-07T07:51:23.555Z,15.07
2023-02-07T07:53:50.683Z,14.98
2023-02-07T07:56:17.739Z,15.63
2023-02-07T07:58:44.769Z,17.25
2023-02-07T08:01:11.726Z,16.13
2023-02-07T08:03:38.709Z,17.70
2023-02-07T08:06:06.225Z,17.08
2023-02-07T08:08:33.331Z,17.27
2023-02-07T08:11:04.204Z,17.77
2023-02-07T08:13:33.080Z,17.75
2023-02-07T08:16:01.096Z,18.80
2023-02-07T08:18:28.656Z,18.77
2023-02-07T08:20:55.887Z,19.05
2023-02-07T08:23:23.014Z,18.75
2023-02-07T08:25:50.258Z,19.42
2023-02-07T08:28:17.525Z,19.08
2023-02-07T08:30:47.616Z,19.25
2023-02-07T08:33:15.517Z,19.42
2023-02-07T08:35:42.552Z,19.60
2023-02-07T08:38:09.469Z,20.42
2023-02-07T08:40:37.158Z,19.70
2023-02-07T08:43:07.064Z,21.02
2023-02-07T08:45:34.190Z,20.50
2023-02-07T08:48:01.263Z,20.23
2023-02-07T08:50:28.202Z,20.50
2023-02-07T08:52:55.144Z,20.85
2023-02-07T08:55:22.102Z,20.50
2023-02-07T08:57:49.195Z,20.42
2023-02-07T09:00:16.856Z,21.27
2023-02-07T09:02:43.869Z,21.17
2023-02-07T09:05:11.415Z,20.77
2023-02-07T09:07:38.382Z,20.50
2023-02-07T09:10:06.896Z,20.30
2023-02-07T09:12:34.367Z,21.23
2023-02-07T09:15:01.324Z,21.08
2023-02-07T09:17:28.253Z,23.88
2023-02-07T09:19:55.201Z,21.63
2023-02-07T09:22:22.248Z,21.40
2023-02-07T09:24:49.240Z,21.38
2023-02-07T09:27:16.254Z,22.33
2023-02-07T09:29:44.058Z,20.48
2023-02-07T09:32:11.063Z,20.27
2023-02-07T09:34:38.069Z,19.20
2023-02-07T09:37:05.023Z,20.38
2023-02-07T09:39:33.120Z,20.13
2023-02-07T09:42:14.238Z,19.63
2023-02-07T09:44:59.748Z,18.95
2023-02-07T09:47:27.105Z,18.92
2023-02-07T09:50:23.776Z,19.42
2023-02-07T09:52:52.729Z,18.05
2023-02-07T09:55:22.588Z,18.80
2023-02-07T09:57:52.987Z,18.67
2023-02-07T10:00:34.132Z,20.50
2023-02-07T10:03:11.851Z,20.10
2023-02-07T10:06:17.447Z,20.67
2023-02-07T10:08:51.677Z,22.42
2023-02-07T10:11:35.810Z,20.38
2023-02-07T10:14:24.356Z,47.78
2023-02-07T10:17:30.446Z,33.30
2023-02-07T10:20:16.777Z,29.63
2023-02-07T10:23:04.646Z,29.92
2023-02-07T10:25:43.696Z,30.55
2023-02-07T10:28:16.562Z,31.00
2023-02-07T10:30:51.618Z,29.10
2023-02-07T10:33:20.481Z,27.33
2023-02-07T10:35:47.555Z,29.38
2023-02-07T10:38:28.859Z,28.88
2023-02-07T10:41:11.227Z,26.95
2023-02-07T10:43:38.830Z,26.42
2023-02-07T10:46:06.988Z,27.48
2023-02-07T10:48:34.089Z,28.02
2023-02-07T10:51:02.545Z,26.33
2023-02-07T10:53:55.144Z,26.00
2023-02-07T10:56:27.035Z,26.50
2023-02-07T10:58:57.097Z,28.25
2023-02-07T11:01:28.306Z,26.23
2023-02-07T11:03:55.353Z,25.52
2023-02-07T11:06:30.132Z,25.48
2023-02-07T11:09:20.024Z,24.55
2023-02-07T11:11:50.869Z,25.33
2023-02-07T11:14:28.129Z,27.05
2023-02-07T11:16:59.288Z,34.78
2023-02-07T11:19:29.860Z,33.55
2023-02-07T11:22:19.354Z,31.08
2023-02-07T11:24:46.367Z,31.50
2023-02-07T11:27:17.293Z,32.22
2023-02-07T11:29:53.849Z,33.00
2023-02-07T11:32:21.918Z,29.58
2023-02-07T11:34:58.398Z,30.15
2023-02-07T11:37:30.318Z,30.17
2023-02-07T11:40:19.735Z,30.10
2023-02-07T11:43:09.914Z,25.83
2023-02-07T11:45:37.310Z,27.38
2023-02-07T11:48:04.881Z,26.42
2023-02-07T11:50:40.281Z,26.13
2023-02-07T11:53:07.676Z,25.88
2023-02-07T11:55:38.461Z,24.98
2023-02-07T11:58:47.529Z,26.27
2023-02-07T12:01:17.656Z,23.67
2023-02-07T12:03:48.358Z,23.33
2023-02-07T12:06:18.366Z,24.48
2023-02-07T12:08:45.354Z,24.48
2023-02-07T12:11:36.305Z,24.13
2023-02-07T12:14:25.446Z,22.20
2023-02-07T12:16:54.288Z,23.27
2023-02-07T12:19:33.223Z,24.23
2023-02-07T12:22:15.018Z,22.90
2023-02-07T12:25:01.521Z,23.48
2023-02-07T12:27:39.748Z,21.23
2023-02-07T12:30:21.757Z,21.50
2023-02-07T12:32:58.179Z,21.45
2023-02-07T12:35:25.249Z,20.65
2023-02-07T12:38:13.944Z,20.27
2023-02-07T12:41:07.299Z,20.95
2023-02-07T12:43:37.978Z,21.13
2023-02-07T12:46:54.309Z,19.80
2023-02-07T12:49:43.576Z,19.13
2023-02-07T12:52:39.777Z,19.40
2023-02-07T12:55:16.028Z,19.58
2023-02-07T12:58:13.908Z,18.90
2023-02-07T13:01:22.359Z,20.15
2023-02-07T13:03:49.375Z,19.45
2023-02-07T13:06:22.533Z,18.33
2023-02-07T13:08:55.561Z,18.48
2023-02-07T13:11:54.795Z,19.58
2023-02-07T13:14:33.800Z,19.70
2023-02-07T13:17:16.131Z,18.25
2023-02-07T13:20:19.406Z,17.98
2023-02-07T13:22:47.729Z,17.60
2023-02-07T13:25:26.621Z,17.73
2023-02-07T13:27:55.514Z,17.45
2023-02-07T13:30:22.777Z,17.70
2023-02-07T13:32:49.760Z,17.67
2023-02-07T13:35:26.516Z,18.08
2023-02-07T13:38:03.712Z,19.52
2023-02-07T13:40:45.278Z,17.25
2023-02-07T13:43:30.724Z,17.35
2023-02-07T13:46:40.361Z,17.33
2023-02-07T13:49:39.632Z,16.58
2023-02-07T13:52:12.625Z,17.67
2023-02-07T13:54:42.276Z,16.83
2023-02-07T13:57:38.504Z,16.50
2023-02-07T14:00:07.736Z,17.38
2023-02-07T14:03:03.906Z,17.65
2023-02-07T14:05:35.789Z,18.17
2023-02-07T14:08:26.033Z,18.88
2023-02-07T14:10:56.312Z,17.52
2023-02-07T14:13:25.968Z,17.50
2023-02-07T14:16:12.394Z,18.00
2023-02-07T14:18:52.231Z,17.45
2023-02-07T14:21:19.192Z,17.60
2023-02-07T14:24:09.111Z,17.60
2023-02-07T14:26:45.180Z,17.23
2023-02-07T14:29:41.697Z,17.38
2023-02-07T14:32:14.839Z,17.08
2023-02-07T14:35:00.448Z,17.50
2023-02-07T14:37:49.421Z,16.67
2023-02-07T14:40:44.556Z,16.48
2023-02-07T14:43:11.625Z,16.45
2023-02-07T14:46:17.034Z,18.23
2023-02-07T14:49:06.603Z,17.30
2023-02-07T14:51:41.042Z,16.70
2023-02-07T14:54:29.917Z,16.33
2023-02-07T14:57:09.152Z,15.77
2023-02-07T14:59:54.296Z,16.20
2023-02-07T15:02:33.363Z,15.02
2023-02-07T15:05:15.972Z,15.82
2023-02-07T15:07:47.236Z,15.20
2023-02-07T15:10:24.375Z,15.23
2023-02-07T15:12:54.112Z,15.93
2023-02-07T15:15:34.919Z,15.35
2023-02-07T15:18:02.020Z,15.02
2023-02-07T15:20:31.226Z,14.27
2023-02-07T15:22:58.740Z,14.88
2023-02-07T15:25:27.892Z,14.25
2023-02-07T15:28:28.376Z,14.90
2023-02-07T15:31:07.178Z,14.40
2023-02-07T15:33:58.251Z,14.60
2023-02-07T15:36:45.896Z,13.30
2023-02-07T15:39:21.400Z,13.55
2023-02-07T15:41:49.662Z,14.23
2023-02-07T15:44:25.386Z,13.07
2023-02-07T15:46:59.336Z,12.73
2023-02-07T15:49:35.277Z,12.80
2023-02-07T15:52:20.447Z,13.35
2023-02-07T15:57:41.731Z,12.77
2023-02-07T16:00:13.954Z,13.60
2023-02-07T16:02:43.173Z,12.80
2023-02-07T16:05:20.329Z,12.82
2023-02-07T16:07:50.170Z,12.50
2023-02-07T16:10:23.175Z,12.80
2023-02-07T16:12:54.372Z,13.73
2023-02-07T16:15:34.862Z,12.95
2023-02-07T16:18:02.732Z,12.88
2023-02-07T16:20:31.197Z,12.43
2023-02-07T16:23:00.471Z,12.10
2023-02-07T16:25:31.522Z,13.23
2023-02-07T16:27:58.621Z,12.25
2023-02-07T16:30:30.154Z,12.55
2023-02-07T16:32:57.253Z,12.95
2023-02-07T16:35:26.026Z,12.43
2023-02-07T16:37:53.606Z,13.23
2023-02-07T16:40:22.352Z,12.45
2023-02-07T16:42:49.314Z,12.43
2023-02-07T16:45:18.585Z,12.60
2023-02-07T16:47:45.658Z,12.70
2023-02-07T16:50:23.247Z,12.77
2023-02-07T16:52:51.133Z,13.05
2023-02-07T16:55:19.092Z,12.40
2023-02-07T16:57:47.113Z,12.35
2023-02-07T17:00:24.989Z,11.75
2023-02-07T17:02:52.431Z,12.48
2023-02-07T17:05:20.573Z,12.02
2023-02-07T17:07:48.070Z,13.18
2023-02-07T17:10:27.918Z,13.02
2023-02-07T17:12:55.268Z,13.57
2023-02-07T17:15:22.383Z,13.63
2023-02-07T17:17:49.878Z,13.25
2023-02-07T17:20:26.915Z,13.45
2023-02-07T17:22:54.587Z,13.35
2023-02-07T17:25:22.478Z,13.27
2023-02-07T17:27:49.561Z,13.07
2023-02-07T17:30:22.217Z,13.85
2023-02-07T17:32:49.318Z,14.18
2023-02-07T17:35:16.441Z,13.63
2023-02-07T17:37:43.588Z,13.30
2023-02-07T17:40:22.535Z,13.13
2023-02-07T17:42:49.882Z,13.98
2023-02-07T17:45:17.038Z,13.95
2023-02-07T17:47:44.081Z,13.38
2023-02-07T17:50:39.626Z,14.18
2023-02-07T17:53:07.634Z,14.68
2023-02-07T17:55:35.184Z,14.70
2023-02-07T17:58:03.509Z,14.75
2023-02-07T18:00:40.272Z,14.80
2023-02-07T18:03:07.810Z,15.85
2023-02-07T18:05:34.927Z,15.85
2023-02-07T18:08:02.401Z,15.82
2023-02-07T18:10:31.765Z,15.23
2023-02-07T18:12:58.903Z,15.07
2023-02-07T18:15:26.443Z,15.38
2023-02-07T18:17:53.773Z,14.70
2023-02-07T18:20:25.761Z,14.35
2023-02-07T18:22:54.549Z,15.07
2023-02-07T18:25:22.261Z,14.95
2023-02-07T18:27:51.135Z,14.43
2023-02-07T18:30:19.292Z,14.73
2023-02-07T18:32:46.479Z,15.27
2023-02-07T18:35:13.644Z,15.57
2023-02-07T18:37:40.768Z,15.68
2023-02-07T18:40:08.113Z,15.13
2023-02-07T18:42:35.146Z,15.43
2023-02-07T18:45:03.407Z,15.05
2023-02-07T18:47:31.659Z,15.15
2023-02-07T18:49:58.691Z,15.30
2023-02-07T18:52:25.732Z,15.98
2023-02-07T18:54:52.670Z,16.33
2023-02-07T18:57:19.645Z,15.77
2023-02-07T18:59:46.645Z,16.92
2023-02-07T19:02:13.902Z,15.85
2023-02-07T19:04:40.847Z,15.88
2023-02-07T19:07:07.938Z,15.93
2023-02-07T19:09:35.136Z,17.35
2023-02-07T19:12:02.133Z,17.92
2023-02-07T19:14:32.889Z,16.95
2023-02-07T19:17:00.129Z,17.20
2023-02-07T19:19:29.707Z,16.38
2023-02-07T19:21:56.787Z,17.30
2023-02-07T19:24:23.888Z,17.63
2023-02-07T19:26:52.952Z,18.15
2023-02-07T19:29:27.877Z,18.23
2023-02-07T19:31:59.233Z,17.83
2023-02-07T19:34:26.175Z,18.25
2023-02-07T19:36:53.869Z,18.25
2023-02-07T19:39:21.372Z,18.35
2023-02-07T19:41:48.759Z,19.67
2023-02-07T19:44:16.491Z,18.30
2023-02-07T19:46:44.223Z,18.20
2023-02-07T19:49:12.625Z,19.08
2023-02-07T19:51:39.841Z,19.77
2023-02-07T19:54:06.858Z,19.45
2023-02-07T19:56:34.060Z,18.55
2023-02-07T19:59:05.177Z,19.55
2023-02-07T20:01:33.184Z,19.13
2023-02-07T20:04:00.773Z,19.17
2023-02-07T20:06:31.481Z,19.75
2023-02-07T20:08:58.984Z,19.23
2023-02-07T20:11:26.004Z,19.63
2023-02-07T20:13:54.626Z,20.00
2023-02-07T20:16:23.685Z,20.02
2023-02-07T20:18:52.082Z,20.52
2023-02-07T20:21:20.920Z,20.83
2023-02-07T20:23:49.946Z,21.42
2023-02-07T20:26:19.398Z,21.23
2023-02-07T20:28:46.513Z,21.42
2023-02-07T20:31:14.393Z,20.83
2023-02-07T20:33:41.940Z,21.55
2023-02-07T20:36:09.545Z,21.05
2023-02-07T20:38:36.398Z,22.35
2023-02-07T20:41:12.346Z,21.20
2023-02-07T20:43:39.990Z,22.25
2023-02-07T20:46:08.148Z,21.77
2023-02-07T20:48:35.068Z,21.33
2023-02-07T20:51:06.274Z,21.38
2023-02-07T20:53:33.120Z,21.77
2023-02-07T20:56:14.158Z,21.63
2023-02-07T20:58:41.093Z,21.90
2023-02-07T21:01:14.398Z,22.15
2023-02-07T21:03:41.682Z,21.13
2023-02-07T21:06:08.739Z,21.67
2023-02-07T21:08:36.276Z,21.65
2023-02-07T21:11:03.541Z,22.05
2023-02-07T21:13:30.678Z,22.30
2023-02-07T21:16:03.200Z,22.50
2023-02-07T21:18:31.381Z,23.00
2023-02-07T21:20:58.523Z,22.45
2023-02-07T21:23:25.588Z,21.55
2023-02-07T21:25:54.038Z,22.15
2023-02-07T21:28:21.049Z,21.63
2023-02-07T21:30:47.918Z,21.85
2023-02-07T21:33:15.696Z,23.08
2023-02-07T21:35:42.593Z,21.95
2023-02-07T21:38:09.472Z,21.95
2023-02-07T21:40:36.393Z,21.85
2023-02-07T21:43:04.818Z,22.67
2023-02-07T21:45:31.838Z,23.27
2023-02-07T21:47:58.676Z,22.42
2023-02-07T21:50:26.210Z,22.45
2023-02-07T21:52:53.089Z,22.17
2023-02-07T21:55:21.186Z,22.60
2023-02-07T21:57:48.070Z,23.23
2023-02-07T22:00:15.079Z,22.80
2023-02-07T22:02:41.974Z,22.70
2023-02-07T22:05:08.875Z,22.83
2023-02-07T22:07:35.736Z,21.73
2023-02-07T22:10:02.569Z,23.30
2023-02-07T22:12:29.535Z,22.15
2023-02-07T22:14:56.604Z,21.80
2023-02-07T22:17:23.572Z,22.15
2023-02-07T22:19:51.580Z,22.83
2023-02-07T22:22:18.738Z,22.45
2023-02-07T22:24:45.613Z,22.70
2023-02-07T22:27:12.587Z,21.23
2023-02-07T22:29:39.485Z,21.60
2023-02-07T22:32:06.300Z,23.13
2023-02-07T22:34:34.002Z,23.67
2023-02-07T22:37:00.952Z,22.55
2023-02-07T22:39:27.821Z,23.30
2023-02-07T22:41:56.448Z,23.52
2023-02-07T22:44:24.940Z,23.40
2023-02-07T22:46:52.081Z,22.45
2023-02-07T22:49:19.431Z,23.50
2023-02-07T22:51:46.276Z,24.00
2023-02-07T22:54:16.996Z,23.73
2023-02-07T22:56:45.058Z,23.52
2023-02-07T22:59:12.856Z,22.85
2023-02-07T23:01:40.426Z,23.60
2023-02-07T23:04:12.974Z,23.85
2023-02-07T23:06:40.088Z,22.88
2023-02-07T23:09:06.996Z,24.10
2023-02-07T23:11:34.022Z,22.95
2023-02-07T23:14:00.943Z,23.05
2023-02-07T23:16:29.113Z,23.10
2023-02-07T23:18:56.958Z,23.85
2023-02-07T23:21:24.443Z,22.58
2023-02-07T23:23:51.386Z,23.15
2023-02-07T23:26:20.016Z,23.67
2023-02-07T23:28:46.852Z,24.08
2023-02-07T23:31:14.918Z,23.92
2023-02-07T23:33:41.982Z,23.98
2023-02-07T23:36:09.016Z,24.20
2023-02-07T23:38:36.102Z,24.60
2023-02-07T23:41:03.061Z,22.98
2023-02-07T23:43:29.901Z,23.42
2023-02-07T23:45:56.744Z,25.02
2023-02-07T23:48:23.659Z,23.75
2023-02-07T23:50:54.353Z,24.13
2023-02-07T23:53:21.519Z,23.65
2023-02-07T23:55:49.196Z,23.02
2023-02-07T23:58:16.656Z,23.52
